EW3608 Weather Reports


Display with metric or nautical units.
time (UTC)temp
F
wind
direction
speed
MPH
gust
MPH
rain 1hr
in
rain 24hr
in
rain mn
in
humidity
%
barometer
mb
20210620151027 71 60 3.0 6.0 0.00 0.00 0.00 38 1016.5
20210620150127 72 42 2.0 6.0 0.00 0.00 0.00 38 1016.4
20210620145227 72 24 2.0 9.0 0.00 0.00 0.00 39 1016.3
20210620144327 72 11 1.0 6.0 0.00 0.00 0.00 37 1016.3
20210620143427 72 19 1.0 4.0 0.00 0.00 0.00 40 1016.4
20210620142527 72 11 1.0 5.0 0.00 0.00 0.00 40 1016.2
20210620141627 71 9 1.0 5.0 0.00 0.00 0.00 45 1016.1
20210620140727 71 6 1.0 4.0 0.00 0.00 0.00 45 1016.0
20210620135829 71 338 0.0 3.0 0.00 0.00 0.00 50 1015.8
20210620134927 70 330 0.0 3.0 0.00 0.00 0.00 52 1015.8
20210620134027 69 289 0.0 2.0 0.00 0.00 0.00 51 1015.7
20210620133127 67 286 0.0 2.0 0.00 0.00 0.00 55 1015.5
20210620132227 66 286 0.0 2.0 0.00 0.00 0.00 57 1015.3
20210620131327 65 293 1.0 4.0 0.00 0.00 0.00 61 1015.1
20210620130427 64 331 1.0 4.0 0.00 0.00 0.00 66 1015.0
20210620125527 65 34 2.0 5.0 0.00 0.00 0.00 65 1014.9
20210620124627 65 49 3.0 7.0 0.00 0.00 0.00 65 1014.5
20210620123727 66 43 3.0 10.0 0.00 0.00 0.00 63 1014.4
20210620122827 66 40 3.0 10.0 0.00 0.00 0.00 59 1013.6
20210620121927 66 304 1.0 4.0 0.00 0.00 0.00 48 1013.4
20210620121027 65 280 1.0 3.0 0.00 0.00 0.00 46 1013.0
20210620120127 64 277 1.0 3.0 0.00 0.00 0.00 46 1012.8
20210620115227 63 273 1.0 3.0 0.00 0.00 0.00 50 1012.7
20210620114327 64 272 0.0 2.0 0.00 0.00 0.00 51 1012.6
20210620113428 64 272 0.0 2.0 0.00 0.00 0.00 46 1012.5
20210620112527 65 272 0.0 2.0 0.00 0.00 0.00 49 1012.4
20210620111627 66 272 1.0 3.0 0.00 0.00 0.00 47 1012.3
20210620110729 67 272 1.0 2.0 0.00 0.00 0.00 43 1012.2
20210620105827 69 272 0.0 2.0 0.00 0.00 0.00 41 1012.2
20210620104927 71 272 1.0 2.0 0.00 0.00 0.00 36 1012.0
20210620104027 72 272 1.0 4.0 0.00 0.00 0.00 31 1011.9
20210620103127 73 272 1.0 4.0 0.00 0.00 0.00 30 1012.0
20210620102227 73 270 2.0 7.0 0.00 0.00 0.00 30 1011.9
20210620101327 73 266 3.0 6.0 0.00 0.00 0.00 30 1011.8
20210620100427 72 261 3.0 8.0 0.00 0.00 0.00 31 1011.7
20210620095527 72 258 1.0 6.0 0.00 0.00 0.00 32 1011.7
20210620094627 72 266 0.0 4.0 0.00 0.00 0.00 31 1011.7
20210620093727 72 266 1.0 4.0 0.00 0.00 0.00 31 1011.7
20210620092827 72 266 1.0 4.0 0.00 0.00 0.00 30 1011.7
20210620091927 73 266 1.0 4.0 0.00 0.00 0.00 31 1011.9
20210620091027 73 266 1.0 5.0 0.00 0.00 0.00 30 1012.0
20210620090127 73 266 2.0 5.0 0.00 0.00 0.00 30 1011.9
20210620085227 73 258 1.0 8.0 0.00 0.00 0.00 31 1012.0
20210620084327 74 249 0.0 2.0 0.00 0.00 0.00 30 1012.0
20210620083427 75 249 1.0 4.0 0.00 0.00 0.00 28 1012.0
20210620082527 77 249 1.0 3.0 0.00 0.00 0.00 27 1012.1
20210620081627 78 248 2.0 9.0 0.00 0.00 0.00 25 1012.0
20210620080727 78 258 3.0 9.0 0.00 0.00 0.00 25 1012.0
20210620075829 78 248 4.0 13.0 0.00 0.00 0.00 25 1012.1
20210620074927 79 252 6.0 13.0 0.00 0.00 0.00 25 1012.1
20210620074027 79 251 5.0 15.0 0.00 0.00 0.00 25 1012.2
20210620073127 79 252 6.0 15.0 0.00 0.00 0.00 25 1012.1
20210620072227 78 258 5.0 15.0 0.00 0.00 0.00 25 1011.9
20210620071327 79 257 5.0 22.0 0.00 0.00 0.00 26 1011.8
20210620070427 79 256 6.0 22.0 0.00 0.00 0.00 26 1011.7
20210620065527 79 250 5.0 22.0 0.00 0.00 0.00 25 1011.7
20210620064627 79 272 4.0 9.0 0.00 0.00 0.00 26 1012.0
20210620063727 77 273 4.0 13.0 0.00 0.00 0.00 27 1011.9
20210620062827 73 256 3.0 12.0 0.00 0.00 0.00 31 1011.9
20210620061927 70 92 1.0 6.0 0.00 0.00 0.00 38 1011.8
20210620061027 71 91 1.0 5.0 0.00 0.00 0.00 39 1011.7
20210620060127 72 92 1.0 3.0 0.00 0.00 0.00 39 1011.6
20210620055229 71 92 0.0 1.0 0.00 0.00 0.00 36 1011.6
20210620054327 72 92 0.0 2.0 0.00 0.00 0.00 38 1011.7
20210620053428 72 110 2.0 5.0 0.00 0.00 0.00 38 1011.6
20210620052527 71 158 1.0 4.0 0.00 0.00 0.00 35 1011.7
20210620051627 70 166 0.0 4.0 0.00 0.00 0.00 38 1011.9
20210620050727 70 169 1.0 2.0 0.00 0.00 0.00 42 1012.0
20210620045827 71 169 0.0 3.0 0.00 0.00 0.00 44 1012.2
20210620044927 72 169 0.0 2.0 0.00 0.00 0.00 41 1012.4
20210620044027 73 169 1.0 2.0 0.00 0.00 0.00 43 1012.2
20210620043127 74 169 1.0 5.0 0.00 0.00 0.00 40 1012.3
20210620042227 74 165 2.0 7.0 0.00 0.00 0.00 40 1012.4
20210620041327 75 181 4.0 9.0 0.00 0.00 0.00 38 1012.3
20210620040427 76 200 3.0 9.0 0.00 0.00 0.00 36 1012.1
20210620035527 78 184 3.0 7.0 0.00 0.00 0.00 31 1012.0
20210620034627 77 189 3.0 9.0 0.00 0.00 0.00 29 1012.1
20210620033727 76 264 0.0 3.0 0.00 0.00 0.00 32 1012.0
20210620032827 77 264 0.0 3.0 0.00 0.00 0.00 31 1011.9
20210620031927 78 264 1.0 6.0 0.00 0.00 0.00 30 1011.6
20210620031027 78 266 2.0 6.0 0.00 0.00 0.00 28 1011.4
20210620030127 79 291 2.0 9.0 0.00 0.00 0.00 29 1011.5
20210620025227 78 329 2.0 8.0 0.00 0.00 0.00 29 1011.9
20210620024328 79 18 2.0 9.0 0.00 0.00 0.00 30 1012.1
20210620023427 79 48 4.0 9.0 0.00 0.00 0.00 30 1012.0
20210620022527 80 350 2.0 9.0 0.00 0.00 0.00 29 1011.9
20210620021627 79 141 1.0 7.0 0.00 0.00 0.00 29 1011.9
20210620020727 79 259 2.0 12.0 0.00 0.00 0.00 30 1011.8
20210620015827 79 258 3.0 12.0 0.00 0.00 0.00 30 1011.7
20210620014927 80 254 8.0 19.0 0.00 0.00 0.00 30 1012.0
20210620014027 80 257 10.0 22.0 0.00 0.00 0.00 30 1012.1
20210620013127 81 257 8.0 20.0 0.00 0.00 0.00 29 1012.4
20210620012227 81 262 11.0 33.0 0.00 0.00 0.00 29 1012.7
20210620011327 80 261 6.0 19.0 0.00 0.00 0.00 31 1012.3
20210620010427 78 264 3.0 19.0 0.00 0.00 0.00 34 1012.6
20210620005527 77 76 1.0 4.0 0.00 0.00 0.00 47 1012.6
20210620004627 78 76 0.0 4.0 0.00 0.00 0.00 45 1012.6
20210620003727 79 43 3.0 7.0 0.00 0.00 0.00 42 1012.3
20210620002827 80 310 1.0 6.0 0.00 0.00 0.00 32 1012.1
20210620001927 79 280 3.0 15.0 0.00 0.00 0.00 33 1012.0
20210620001027 78 260 2.0 15.0 0.00 0.00 0.00 35 1012.5
20210620000127 77 211 3.0 6.0 0.00 0.00 0.00 50 1012.9
20210619235227 78 219 2.0 6.0 0.00 0.00 0.00 51 1013.7
20210619234327 78 191 1.0 6.0 0.00 0.00 0.00 50 1014.1
20210619233427 77 177 1.0 4.0 0.00 0.00 0.00 51 1014.5
20210619232527 76 163 1.0 4.0 0.00 0.00 0.00 54 1014.6
20210619231627 76 174 1.0 4.0 0.00 0.00 0.00 53 1014.8
20210619230728 75 190 2.0 8.0 0.00 0.00 0.00 54 1015.4
20210619225827 75 213 3.0 7.0 0.00 0.00 0.00 54 1015.0
20210619224927 76 214 2.0 7.0 0.00 0.00 0.00 55 1014.8
20210619224027 76 82 1.0 3.0 0.00 0.00 0.00 50 1015.1
20210619223128 76 83 1.0 3.0 0.00 0.00 0.00 51 1015.0
20210619222227 76 72 1.0 5.0 0.00 0.00 0.00 49 1015.1
20210619221327 77 54 4.0 9.0 0.00 0.00 0.00 50 1014.9
20210619220427 78 89 4.0 15.0 0.00 0.00 0.00 49 1015.0
20210619215527 79 56 4.0 10.0 0.00 0.00 0.00 47 1015.0
20210619214627 79 36 4.0 12.0 0.00 0.00 0.00 47 1014.9
20210619213727 78 20 4.0 12.0 0.00 0.00 0.00 50 1014.7
20210619212827 78 356 5.0 15.0 0.00 0.00 0.00 53 1015.1
20210619211927 79 356 5.0 11.0 0.00 0.00 0.00 51 1015.4
20210619211027 81 349 3.0 9.0 0.00 0.00 0.00 40 1015.2
20210619210127 82 4 2.0 11.0 0.00 0.00 0.00 38 1015.0
20210619205227 82 12 5.0 12.0 0.00 0.00 0.00 35 1014.7
20210619204327 83 21 5.0 13.0 0.00 0.00 0.00 32 1014.8
20210619203427 85 31 4.0 13.0 0.00 0.00 0.00 39 1014.7
20210619202527 84 25 5.0 13.0 0.00 0.00 0.00 46 1014.8
20210619201627 85 34 3.0 9.0 0.00 0.00 0.00 47 1014.8
20210619200727 85 37 3.0 7.0 0.00 0.00 0.00 47 1014.8
20210619195827 85 31 3.0 9.0 0.00 0.00 0.00 44 1015.0
20210619194927 85 37 2.0 6.0 0.00 0.00 0.00 45 1015.1
20210619194027 85 107 1.0 5.0 0.00 0.00 0.00 44 1015.1
20210619193127 85 199 1.0 3.0 0.00 0.00 0.00 45 1015.2
20210619192227 83 214 1.0 3.0 0.00 0.00 0.00 45 1015.3
20210619191327 82 219 2.0 5.0 0.00 0.00 0.00 50 1015.2
20210619190427 82 217 2.0 5.0 0.00 0.00 0.00 50 1015.3
20210619185527 84 122 1.0 5.0 0.00 0.00 0.00 48 1015.3
20210619184627 84 75 1.0 5.0 0.00 0.00 0.00 48 1015.3
20210619183727 83 60 1.0 3.0 0.00 0.00 0.00 47 1015.5
20210619182827 83 70 2.0 7.0 0.00 0.00 0.00 49 1015.7
20210619181927 82 71 1.0 3.0 0.00 0.00 0.00 48 1015.9
20210619181027 82 64 2.0 5.0 0.00 0.00 0.00 46 1016.0
20210619180127 82 58 1.0 4.0 0.00 0.00 0.00 45 1016.3
20210619175227 81 54 1.0 5.0 0.00 0.00 0.00 49 1016.3
20210619174327 80 50 1.0 4.0 0.00 0.00 0.00 49 1016.4
20210619173427 79 50 1.0 4.0 0.00 0.00 0.00 53 1016.6
20210619172527 78 22 2.0 6.0 0.00 0.00 0.00 54 1016.6
20210619171627 78 360 3.0 9.0 0.00 0.00 0.00 55 1016.7
20210619170727 78 7 2.0 6.0 0.00 0.00 0.00 55 1016.6
20210619165827 78 17 2.0 5.0 0.00 0.00 0.00 57 1016.7
20210619164927 77 128 1.0 3.0 0.00 0.00 0.00 57 1016.7
20210619164027 76 160 1.0 4.0 0.00 0.00 0.00 55 1016.7
20210619163127 76 115 1.0 5.0 0.00 0.00 0.00 57 1016.7
20210619162227 75 76 1.0 7.0 0.00 0.00 0.00 53 1016.8
20210619161327 74 62 0.0 2.0 0.00 0.00 0.00 56 1016.9
20210619160427 73 62 0.0 2.0 0.00 0.00 0.00 58 1017.1
20210619155527 72 62 0.0 3.0 0.00 0.00 0.00 60 1017.2
20210619154627 71 62 0.0 4.0 0.00 0.00 0.00 65 1017.3
20210619153727 71 82 1.0 4.0 0.00 0.00 0.00 66 1017.5
20210619152827 71 109 0.0 3.0 0.00 0.00 0.00 65 1017.6
20210619151928 71 110 1.0 3.0 0.00 0.00 0.00 65 1017.5